Machens, Missouri
Current Conditions -  °F | °C
As of 6:54 PM on Friday 24 Oct 2014 (Local Time) from KSET Reporting Station
Scattered Clouds Scattered Clouds  
Wind Chill: 18°   Ceiling: Unl
Heat Index: 18°   Visibility: 10mi
Dew Point:   Wind: 0mph
Humidity: 58%   Direction: NA
Pressure: 29.99"   Gusts: NA
Location:  38.9266°N, 90.3904°W
Report Text: KSET 242354Z AUTO 00000KT 10SM SCT043 18/09 A2999 RMK AO2 SLP152 T01780094 10228 20172 55009
Loading
Personal Weather Stations






























Interactive Weather Map
Tropical Storm Tracking
New forecast layout! Learn more

10-Day Weather Forecast

Advertisements
Track Severe Weather on mobile